Latest Weather Observations for Mareeba

IDQ60801

Issued at 5:32 pm EST Sunday 15 December 2019 (issued every 10 minutes, with the page automatically refreshed every 10 minutes)

About weather observations | Map of weather stations | Latest weather observations for QLD | Other Formats
Station Details ID: 031210 Name: MAREEBA AIRPORT Lat: -17.07 Lon: 145.43 Height: 471.93 m
Data from the previous 72 hours. | See also: Recent months at Mareeba
Date/Time
EST
Temp
°C
App
Temp
°C
Dew
Point
°C
Rel
Hum
%
Delta-T
°C
Wind Press
QNH
hPa
Press
MSL
hPa
Rain since
9am
mm
Dir  Spd
km/h
Gust
km/h
Spd
kts
Gust
kts
15/05:30pm 25.3 27.2 19.0 68 4.1 NNE 7 11 4 6 1009.1 1005.8 0.6
15/05:00pm 24.6 23.1 17.6 65 4.5 SE 22 30 12 16 1007.7 1004.4 0.6
15/04:58pm 24.2 22.7 17.7 67 4.1 SE 22 32 12 17 1007.7 1004.4 0.6
15/04:30pm 24.9 24.3 18.8 69 4.0 SSE 20 32 11 17 1009.8 1006.5 0.2
15/04:00pm 28.0 30.5 22.5 72 3.8 ENE 13 22 7 12 1008.7 1005.4 0.0
15/03:30pm 29.7 31.9 21.9 63 5.4 NE 13 24 7 13 1008.6 1005.3 0.0
15/03:00pm 32.6 33.5 20.8 49 8.0 NE 17 28 9 15 1008.3 1005.1 0.0
15/02:30pm 33.9 34.7 19.9 43 9.5 NE 15 22 8 12 1008.3 1005.1 0.0
15/02:00pm 34.9 35.1 14.7 29 12.8 N 7 15 4 8 1008.9 1005.6 0.0
15/01:30pm 34.5 35.1 15.9 33 11.9 N 7 13 4 7 1009.3 1006.0 0.0
15/01:00pm 33.6 34.5 16.5 36 11.0 ESE 7 13 4 7 1009.7 1006.4 0.0
15/12:30pm 33.9 35.7 18.8 41 10.0 NNE 7 15 4 8 1010.1 1006.8 0.0
15/12:00pm 32.6 34.1 18.8 44 9.2 NW 9 15 5 8 1010.9 1007.6 0.0
15/11:30am 32.1 34.2 19.4 47 8.5 NNW 7 15 4 8 1011.4 1008.1 0.0
15/11:00am 30.4 32.1 19.4 51 7.3 W 9 17 5 9 1011.8 1008.5 0.0
15/10:30am 29.2 31.0 19.5 56 6.4 NNE 9 17 5 9 1012.0 1008.7 0.0
15/10:00am 28.6 31.0 20.1 60 5.7 ENE 7 13 4 7 1012.3 1009.1 0.0
15/09:30am 27.7 30.9 21.3 68 4.3 NNE 6 11 3 6 1012.8 1009.6 0.0
15/09:02am 26.5 28.9 20.8 71 3.8 NNE 9 13 5 7 1012.8 1009.6 0.0
15/09:00am 26.7 29.2 21.0 71 3.8 NNE 9 13 5 7 1012.8 1009.6 2.4
15/08:30am 25.8 28.4 20.4 72 3.6 NE 7 13 4 7 1012.6 1009.4 2.2
15/08:17am 26.1 29.0 20.7 72 3.6 E 6 11 3 6 1012.6 1009.4 2.2
15/08:00am 25.2 28.0 20.9 77 2.9 NE 7 13 4 7 1012.7 1009.5 2.2
15/07:30am 24.7 26.7 20.0 75 3.1 ESE 9 11 5 6 1012.8 1009.6 2.2
15/07:00am 23.6 25.9 19.9 80 2.4 SSE 7 9 4 5 1012.8 1009.6 2.2
15/06:30am 22.6 24.7 19.4 82 2.1 SSW 7 13 4 7 1012.4 1009.2 2.2
15/06:05am 22.0 23.6 19.2 84 1.8 SSE 9 13 5 7 1011.9 1008.6 2.2
15/06:00am 22.1 23.8 19.3 84 1.8 SE 9 13 5 7 1011.8 1008.5 2.2
15/05:43am 22.2 24.4 20.5 90 1.1 SSE 9 11 5 6 1011.8 1008.5 2.2
15/05:30am 22.1 24.4 20.7 92 0.9 SE 9 11 5 6 1011.7 1008.4 2.2
15/05:00am 22.0 24.5 21.0 94 0.7 SE 9 13 5 7 1011.1 1007.8 2.2
15/04:30am 22.3 25.8 21.8 97 0.3 ESE 6 7 3 4 1010.6 1007.4 2.2
15/04:00am 22.2 26.8 21.7 97 0.3 CALM 0 0 0 0 1010.0 1006.7 2.2
15/03:30am 22.0 26.2 21.0 94 0.7 CALM 0 4 0 2 1009.6 1006.3 2.2
15/03:00am 22.2 25.4 21.2 94 0.7 ESE 6 7 3 4 1009.4 1006.1 2.2
15/02:30am 22.3 26.6 21.1 93 0.8 CALM 0 0 0 0 1010.0 1006.7 2.2
15/02:00am 22.4 25.1 21.4 94 0.7 SSW 9 11 5 6 1010.3 1007.1 2.2
15/01:30am 22.5 26.6 20.8 90 1.1 CALM 0 2 0 1 1010.6 1007.4 2.2
15/01:00am 22.5 25.0 21.1 92 0.9 SE 9 11 5 6 1011.2 1007.9 2.2
15/12:30am 22.5 25.0 21.1 92 0.9 SSE 9 13 5 7 1011.5 1008.2 2.2
15/12:00am 22.8 25.7 21.8 94 0.7 SE 9 11 5 6 1011.5 1008.2 2.2
 
Date/Time
EST
Temp
°C
App
Temp
°C
Dew
Point
°C
Rel
Hum
%
Delta-T
°C
Wind Press
QNH
hPa
Press
MSL
hPa
Rain since
9am
mm
Dir  Spd
km/h
Gust
km/h
Spd
kts
Gust
kts
14/11:30pm 23.1 27.8 21.9 93 0.8 CALM 0 2 0 1 1011.8 1008.5 2.2
14/11:00pm 23.1 25.7 21.2 89 1.3 SE 9 15 5 8 1012.2 1009.0 2.2
14/10:30pm 22.7 24.7 20.8 89 1.3 NW 11 15 6 8 1012.1 1008.8 2.2
14/10:00pm 23.6 25.9 19.9 80 2.4 ESE 7 13 4 7 1013.5 1010.2 2.2
14/09:30pm 23.3 25.7 21.6 90 1.1 SSE 11 15 6 8 1014.0 1010.7 2.2
14/09:00pm 23.5 26.8 22.5 94 0.7 NNE 9 15 5 8 1013.5 1010.2 2.2
14/08:30pm 24.1 27.9 22.4 90 1.2 SSW 6 13 3 7 1013.7 1010.4 1.4
14/08:00pm 24.2 28.1 22.5 90 1.2 N 6 9 3 5 1012.7 1009.5 0.6
14/07:30pm 25.3 28.3 21.2 78 2.8 NW 7 11 4 6 1012.4 1009.2 0.0
14/07:00pm 26.1 29.1 20.9 73 3.5 NE 6 13 3 7 1011.0 1007.7 0.0
14/06:30pm 26.9 28.9 20.7 69 4.2 NE 11 17 6 9 1009.8 1006.5 0.0
14/06:00pm 28.4 29.5 20.4 62 5.4 N 15 22 8 12 1008.9 1005.6 0.0
14/05:30pm 29.2 29.5 20.4 59 5.9 NNE 19 30 10 16 1008.7 1005.4 0.0
14/05:00pm 31.3 32.7 20.3 52 7.4 NNE 13 19 7 10 1008.6 1005.3 0.0
14/04:30pm 32.3 32.9 19.5 46 8.6 NNE 15 22 8 12 1008.2 1004.9 0.0
14/04:00pm 33.7 34.1 19.0 42 9.8 NNE 15 22 8 12 1008.3 1005.1 0.0
14/03:30pm 34.3 33.7 18.8 40 10.3 NNE 20 32 11 17 1008.1 1004.8 0.0
14/03:00pm 34.3 33.9 18.8 40 10.3 NNE 19 28 10 15 1008.2 1004.9 0.0
14/02:30pm 34.8 34.8 17.1 35 11.5 NNE 13 24 7 13 1008.4 1005.2 0.0
14/02:00pm 37.4 36.5 11.4 21 15.8 NNE 7 15 4 8 1008.7 1005.4 0.0
14/01:30pm 36.5 34.4 11.3 22 15.2 WSW 13 17 7 9 1009.3 1006.0 0.0
14/01:00pm 37.2 35.3 11.9 22 15.5 NW 13 26 7 14 1009.6 1006.3 0.0
14/12:30pm 37.1 34.8 11.8 22 15.4 NW 15 24 8 13 1010.3 1007.1 0.0
14/12:00pm 35.7 34.0 12.6 25 14.2 WNW 13 20 7 11 1011.0 1007.7 0.0
14/11:30am 34.5 33.4 14.4 30 12.6 NW 13 20 7 11 1011.6 1008.3 0.0
14/11:00am 33.9 33.4 15.8 33 11.6 WNW 13 26 7 14 1012.1 1008.8 0.0
14/10:30am 32.5 32.1 16.3 37 10.4 W 13 26 7 14 1012.5 1009.3 0.0
14/10:00am 31.1 32.3 17.4 44 8.9 NNW 7 15 4 8 1013.1 1009.8 0.0
14/09:30am 28.5 29.7 18.3 54 6.6 NNW 9 17 5 9 1013.4 1010.1 0.0
14/09:00am 27.9 29.1 18.3 56 6.2 N 9 15 5 8 1013.5 1010.2 0.0
14/08:30am 27.5 28.8 18.5 58 5.9 N 9 15 5 8 1013.8 1010.5 0.0
14/08:00am 25.3 27.8 19.9 72 3.6 N 6 9 3 5 1014.0 1010.7 0.0
14/07:30am 23.5 26.1 20.0 81 2.3 NNE 6 9 3 5 1013.9 1010.6 0.0
14/07:00am 22.2 24.6 19.6 85 1.7 NE 6 7 3 4 1013.9 1010.6 0.0
14/06:30am 21.3 25.0 19.9 92 0.9 CALM 0 7 0 4 1013.8 1010.5 0.0
14/06:00am 20.5 24.1 19.8 96 0.5 CALM 0 0 0 0 1013.4 1010.1 0.0
14/05:30am 20.5 24.0 19.5 94 0.6 CALM 0 0 0 0 1013.0 1009.7 0.0
14/05:00am 21.1 23.6 19.9 93 0.8 W 6 9 3 5 1012.7 1009.5 0.0
14/04:30am 21.2 24.8 19.7 91 1.0 CALM 0 4 0 2 1012.2 1009.0 0.0
14/04:00am 21.9 24.4 20.2 90 1.1 ESE 7 11 4 6 1012.1 1008.8 0.0
14/03:30am 22.3 26.1 20.2 88 1.4 CALM 0 0 0 0 1012.3 1009.1 0.0
14/03:18am 22.3 25.4 20.2 88 1.4 WSW 4 9 2 5 1012.3 1009.1 0.0
14/03:00am 22.7 24.9 20.4 87 1.5 W 9 11 5 6 1012.3 1009.1 0.0
14/02:30am 22.8 27.0 20.9 89 1.3 CALM 0 0 0 0 1012.3 1009.1 0.0
14/02:00am 22.4 26.7 21.2 93 0.8 CALM 0 0 0 0 1012.3 1009.1 0.0
14/01:30am 22.0 26.2 21.0 94 0.7 CALM 0 0 0 0 1012.4 1009.2 0.0
14/01:26am 21.8 25.8 20.6 93 0.8 CALM 0 0 0 0 1012.5 1009.3 0.0
14/01:00am 21.8 25.7 20.4 92 0.9 CALM 0 0 0 0 1012.6 1009.4 0.0
14/12:35am 22.2 26.2 20.5 90 1.1 CALM 0 0 0 0 1013.0 1009.7 0.0
14/12:30am 22.2 26.2 20.5 90 1.1 CALM 0 0 0 0 1012.8 1009.6 0.0
14/12:00am 22.8 26.5 20.7 88 1.4 N 2 9 1 5 1013.2 1009.9 0.0
 
Date/Time
EST
Temp
°C
App
Temp
°C
Dew
Point
°C
Rel
Hum
%
Delta-T
°C
Wind Press
QNH
hPa
Press
MSL
hPa
Rain since
9am
mm
Dir  Spd
km/h
Gust
km/h
Spd
kts
Gust
kts
13/11:30pm 23.0 25.9 21.1 89 1.3 NNE 7 13 4 7 1013.1 1009.8 0.0
13/11:00pm 22.8 25.8 21.3 91 1.0 NNE 7 11 4 6 1013.1 1009.8 0.0
13/10:30pm 22.4 25.5 21.0 92 0.9 N 6 9 3 5 1013.1 1009.8 0.0
13/10:25pm 22.4 25.5 21.0 92 0.9 N 6 9 3 5 1013.1 1009.8 0.0
13/10:00pm 22.5 24.7 21.1 92 0.9 N 11 19 6 10 1013.2 1009.9 0.0
13/09:30pm 23.0 25.5 20.3 85 1.8 NE 7 9 4 5 1012.8 1009.6 0.0
13/09:00pm 23.5 26.2 20.2 82 2.2 NNE 6 9 3 5 1012.7 1009.5 0.0
13/08:30pm 24.0 26.6 20.1 79 2.6 NNE 6 7 3 4 1012.4 1009.2 0.0
13/08:00pm 25.0 28.7 20.0 74 3.3 CALM 0 0 0 0 1012.1 1008.8 0.0
13/07:30pm 25.8 28.1 19.9 70 3.9 NNE 7 13 4 7 1011.6 1008.3 0.0
13/07:00pm 27.8 30.0 19.6 61 5.4 N 7 11 4 6 1011.1 1007.8 0.0
13/06:30pm 31.3 31.9 15.7 39 9.9 ESE 7 9 4 5 1010.3 1007.1 0.0
13/06:00pm 32.9 32.4 15.0 34 11.3 E 11 17 6 9 1010.0 1006.7 0.0
13/05:30pm 33.9 31.7 14.4 31 12.2 SE 19 26 10 14 1009.9 1006.6 0.0
13/05:00pm 34.6 32.3 14.0 29 12.9 ESE 19 26 10 14 1009.9 1006.6 0.0
13/04:30pm 35.2 33.2 13.9 27 13.3 ESE 17 26 9 14 1009.8 1006.5 0.0
13/04:00pm 35.8 33.0 12.7 25 14.2 SE 19 32 10 17 1009.7 1006.4 0.0
13/03:30pm 35.5 32.3 11.2 23 14.6 ESE 19 28 10 15 1009.8 1006.5 0.0
13/03:00pm 35.5 32.1 11.2 23 14.6 SE 20 32 11 17 1010.3 1007.1 0.0
13/02:30pm 36.6 32.3 9.2 19 16.1 SE 22 41 12 22 1010.3 1007.1 0.0
13/02:00pm 36.1 32.0 8.8 19 15.9 ESE 20 35 11 19 1010.6 1007.4 0.0
13/01:30pm 36.2 32.6 10.4 21 15.4 SE 20 32 11 17 1010.9 1007.6 0.0
13/01:00pm 35.7 33.7 11.4 23 14.7 ESE 13 22 7 12 1011.3 1008.0 0.0
13/12:30pm 34.8 32.3 11.2 24 14.2 ENE 15 32 8 17 1011.7 1008.4 0.0
13/12:00pm 34.5 31.2 11.0 24 14.0 ESE 19 32 10 17 1012.1 1008.8 0.0
13/11:30am 34.2 34.2 15.1 31 12.1 E 9 17 5 9 1012.5 1009.3 0.0
13/11:00am 32.9 33.1 15.8 35 10.9 N 9 17 5 9 1012.7 1009.5 0.0
13/10:30am 31.2 31.5 14.4 36 10.4 ESE 6 13 3 7 1013.1 1009.8 0.0
13/10:00am 29.9 30.3 15.2 41 9.2 SSW 7 13 4 7 1013.5 1010.2 0.0
13/09:30am 28.4 29.5 17.0 50 7.3 SSE 7 15 4 8 1013.8 1010.5 0.0
13/09:00am 27.5 29.7 19.3 61 5.4 S 6 9 3 5 1014.0 1010.7 3.6
13/08:30am 25.9 28.6 18.6 64 4.7 SE 2 11 1 6 1014.0 1010.7 3.6
13/08:00am 24.3 25.7 18.7 71 3.6 SE 9 11 5 6 1014.1 1010.9 3.6
13/07:30am 23.3 24.5 19.0 77 2.8 SSE 11 15 6 8 1014.2 1011.0 3.6
13/07:00am 22.1 24.3 19.1 83 1.9 SW 6 7 3 4 1014.0 1010.7 3.6
13/06:30am 20.4 23.6 18.9 91 1.0 CALM 0 2 0 1 1013.5 1010.2 3.6
13/06:00am 19.1 21.9 17.9 93 0.8 CALM 0 0 0 0 1013.2 1009.9 3.6
13/05:30am 19.3 21.6 18.5 95 0.5 ESE 4 7 2 4 1012.6 1009.4 3.6
13/05:00am 19.6 22.5 18.1 91 0.9 CALM 0 0 0 0 1012.5 1009.3 3.6
13/04:30am 20.0 22.8 18.0 88 1.3 CALM 0 6 0 3 1012.2 1009.0 3.6
13/04:00am 21.3 21.3 19.0 87 1.5 SSE 17 20 9 11 1012.2 1009.0 3.6
13/03:30am 20.8 22.2 19.6 93 0.8 SSE 11 17 6 9 1012.1 1008.8 3.6
13/03:00am 20.2 23.5 19.0 93 0.8 CALM 0 0 0 0 1012.0 1008.7 3.6
13/02:30am 20.5 22.6 19.3 93 0.8 E 7 9 4 5 1012.1 1008.8 3.6
13/02:00am 21.1 23.3 19.6 91 1.0 SE 7 11 4 6 1012.2 1009.0 3.6
13/01:30am 21.4 22.4 19.5 89 1.2 SE 13 17 7 9 1012.2 1009.0 3.6
13/01:00am 21.9 23.0 19.6 87 1.5 SSE 13 19 7 10 1012.2 1009.0 3.6
13/12:30am 21.8 22.8 19.5 87 1.5 SSE 13 15 7 8 1012.5 1009.3 3.6
13/12:00am 22.0 23.5 19.7 87 1.5 S 11 15 6 8 1013.2 1009.9 3.6
 
Date/Time
EST
Temp
°C
App
Temp
°C
Dew
Point
°C
Rel
Hum
%
Delta-T
°C
Wind Press
QNH
hPa
Press
MSL
hPa
Rain since
9am
mm
Dir  Spd
km/h
Gust
km/h
Spd
kts
Gust
kts
12/11:30pm 22.3 24.4 20.2 88 1.4 SSE 9 13 5 7 1013.8 1010.5 3.6
12/11:00pm 22.3 24.0 20.2 88 1.4 SSE 11 13 6 7 1014.0 1010.7 3.6
12/10:30pm 22.2 25.5 19.9 87 1.5 SE 2 7 1 4 1014.0 1010.7 3.6
12/10:00pm 22.5 24.2 20.2 87 1.5 SSE 11 15 6 8 1014.0 1010.7 3.6
12/09:30pm 22.8 24.2 20.3 86 1.6 SSE 13 17 7 9 1013.0 1009.7 3.6
12/09:00pm 23.4 25.9 20.3 83 2.0 S 7 13 4 7 1013.0 1009.7 3.6
12/08:30pm 23.9 26.4 20.2 80 2.4 S 7 9 4 5 1012.8 1009.6 3.6
12/08:00pm 25.5 26.5 20.3 73 3.5 SSE 15 19 8 10 1012.5 1009.3 3.6
12/07:30pm 26.3 26.7 19.9 68 4.2 SE 17 22 9 12 1012.4 1009.2 3.6
12/07:00pm 26.9 27.9 19.5 64 4.9 SSE 13 17 7 9 1012.1 1008.8 3.6
12/06:30pm 28.1 27.8 19.1 58 5.9 SE 19 24 10 13 1011.6 1008.3 3.6
12/06:00pm 29.2 28.6 18.9 53 6.8 SE 20 28 11 15 1011.0 1007.7 3.6

Other formats

Comma delimited format used in spreadsheet applications
http://www.bom.gov.au/fwo/IDQ60801/IDQ60801.95286.axf

JavaScript Object Notation format (JSON) in row-major order
http://www.bom.gov.au/fwo/IDQ60801/IDQ60801.95286.json

Data quality

Most of these data are generated automatically and are frequently updated. Quality checks on data are not normally performed. It is possible for incorrect values to appear. Refer to information at About Latest Weather Observations and please check the disclaimer before using these data.